Time;durP1;ratioP1;P1;durP2;ratioP2;P2;SDS_P1;SDS_P2;PMS_P1;PMS_P2;Temp;Humidity;BMP_temperature;BMP_pressure;BME280_temperature;BME280_humidity;BME280_pressure;Samples;Min_cycle;Max_cycle;Signal;HPM_P1;HPM_P2
2023/10/08 00:01:21;;;;;;;17.85;3.25;;;;;;;;;;5050297;28;20064;-60
2023/10/08 00:03:50;;;;;;;16.33;3.38;;;;;;;;;;5059731;28;20137;-61
2023/10/08 00:06:20;;;;;;;19.55;3.28;;;;;;;;;;5047042;27;20064;-60
2023/10/08 00:08:47;;;;;;;17.92;3.50;;;;;;;;;;5037735;28;20049;-60
2023/10/08 00:11:15;;;;;;;18.27;3.22;;;;;;;;;;5046552;28;20057;-60
2023/10/08 00:13:43;;;;;;;13.73;2.80;;;;;;;;;;5036640;28;21010;-60
2023/10/08 00:16:15;;;;;;;10.18;2.83;;;;;;;;;;5047826;28;20045;-60
2023/10/08 00:18:48;;;;;;;13.30;2.45;;;;;;;;;;5076065;28;20170;-60
2023/10/08 00:21:19;;;;;;;11.75;2.88;;;;;;;;;;5054449;28;20059;-60
2023/10/08 00:23:52;;;;;;;24.90;3.00;;;;;;;;;;5073863;28;20056;-60
2023/10/08 00:26:27;;;;;;;12.43;3.22;;;;;;;;;;5055522;28;20059;-60
2023/10/08 00:28:55;;;;;;;11.25;2.65;;;;;;;;;;5038872;28;20072;-60
2023/10/08 00:31:25;;;;;;;14.70;2.95;;;;;;;;;;5055499;27;20076;-60
2023/10/08 00:33:53;;;;;;;17.45;2.88;;;;;;;;;;5073387;28;20056;-60
2023/10/08 00:36:20;;;;;;;16.93;3.13;;;;;;;;;;5069092;27;20102;-61
2023/10/08 00:38:50;;;;;;;20.52;3.20;;;;;;;;;;5057512;28;20071;-60
2023/10/08 00:41:21;;;;;;;15.38;2.78;;;;;;;;;;5049585;27;20087;-61
2023/10/08 00:43:48;;;;;;;14.45;2.83;;;;;;;;;;5057693;28;20087;-60
2023/10/08 00:46:22;;;;;;;13.23;3.20;;;;;;;;;;5068987;28;20059;-60
2023/10/08 00:48:51;;;;;;;16.13;3.08;;;;;;;;;;5059655;28;20075;-60
2023/10/08 00:51:26;;;;;;;16.58;2.90;;;;;;;;;;5056290;28;20060;-60
2023/10/08 00:53:59;;;;;;;18.73;3.28;;;;;;;;;;5057767;28;20061;-61
2023/10/08 00:56:44;;;;;;;13.93;3.15;;;;;;;;;;5050569;28;20064;-61
2023/10/08 00:59:15;;;;;;;13.77;4.00;;;;;;;;;;5051807;28;20063;-63
2023/10/08 01:01:46;;;;;;;16.23;3.75;;;;;;;;;;5058008;28;20147;-60
2023/10/08 01:04:17;;;;;;;15.88;3.97;;;;;;;;;;5072130;28;20139;-61
2023/10/08 01:06:44;;;;;;;22.45;3.42;;;;;;;;;;5055492;28;20049;-60
2023/10/08 01:09:18;;;;;;;22.75;4.47;;;;;;;;;;5052671;28;20143;-61
2023/10/08 01:11:49;;;;;;;20.20;3.22;;;;;;;;;;5057449;28;20056;-60
2023/10/08 01:14:17;;;;;;;17.45;2.90;;;;;;;;;;5058202;28;20238;-61
2023/10/08 01:16:46;;;;;;;20.00;3.35;;;;;;;;;;5045958;28;20045;-61
2023/10/08 01:19:20;;;;;;;11.50;3.28;;;;;;;;;;5031227;28;20139;-62
2023/10/08 01:21:47;;;;;;;11.00;2.63;;;;;;;;;;5036102;28;20119;-61
2023/10/08 01:24:17;;;;;;;21.42;3.53;;;;;;;;;;5035886;28;20056;-61
2023/10/08 01:26:47;;;;;;;20.60;3.33;;;;;;;;;;5070112;27;20055;-62
2023/10/08 01:29:20;;;;;;;16.08;3.30;;;;;;;;;;5056190;28;20053;-62
2023/10/08 01:31:48;;;;;;;17.80;3.42;;;;;;;;;;5054995;28;20061;-60
2023/10/08 01:34:17;;;;;;;16.15;3.17;;;;;;;;;;5057247;28;20069;-61
2023/10/08 01:36:44;;;;;;;13.48;2.80;;;;;;;;;;5051819;28;20125;-61
2023/10/08 01:39:15;;;;;;;10.45;2.83;;;;;;;;;;5051099;28;20056;-62
2023/10/08 01:41:44;;;;;;;21.65;3.03;;;;;;;;;;5057552;28;20056;-61
2023/10/08 01:44:11;;;;;;;10.90;3.20;;;;;;;;;;5071684;28;20092;-61
2023/10/08 01:46:40;;;;;;;14.43;3.17;;;;;;;;;;5051430;28;20155;-61
2023/10/08 01:49:13;;;;;;;21.52;3.22;;;;;;;;;;5054457;28;20056;-61
2023/10/08 01:51:46;;;;;;;15.75;3.42;;;;;;;;;;5056915;28;20084;-61
2023/10/08 01:54:14;;;;;;;17.02;3.17;;;;;;;;;;5075910;28;20065;-61
2023/10/08 01:56:46;;;;;;;16.42;3.50;;;;;;;;;;5052170;28;20111;-61
2023/10/08 01:59:15;;;;;;;17.00;3.10;;;;;;;;;;5047966;28;20139;-61
2023/10/08 02:01:42;;;;;;;14.50;2.70;;;;;;;;;;5055687;28;20079;-61
2023/10/08 02:04:12;;;;;;;19.30;3.42;;;;;;;;;;5035205;28;20064;-61
2023/10/08 02:06:39;;;;;;;16.10;3.60;;;;;;;;;;5047808;28;20056;-61
2023/10/08 02:09:07;;;;;;;19.42;3.75;;;;;;;;;;5068783;28;20071;-61
2023/10/08 02:11:43;;;;;;;18.92;2.78;;;;;;;;;;5055176;28;20060;-60
2023/10/08 02:14:15;;;;;;;19.52;3.67;;;;;;;;;;5070863;28;20052;-61
2023/10/08 02:16:42;;;;;;;14.75;3.28;;;;;;;;;;5054886;27;20052;-61
2023/10/08 02:19:10;;;;;;;18.52;3.47;;;;;;;;;;5059544;27;20052;-62
2023/10/08 02:21:37;;;;;;;13.30;3.10;;;;;;;;;;5058158;28;20063;-61
2023/10/08 02:24:05;;;;;;;12.50;2.95;;;;;;;;;;5065997;27;20060;-61
2023/10/08 02:26:33;;;;;;;12.75;3.30;;;;;;;;;;5031068;28;20195;-61
2023/10/08 02:29:00;;;;;;;16.90;4.40;;;;;;;;;;5068498;28;20095;-60
2023/10/08 02:31:28;;;;;;;16.08;3.40;;;;;;;;;;5511911;22;20027;-61
2023/10/08 02:33:55;;;;;;;15.43;2.92;;;;;;;;;;5005531;28;20049;-60
2023/10/08 02:36:22;;;;;;;14.77;3.17;;;;;;;;;;5040262;28;20687;-61
2023/10/08 02:38:49;;;;;;;14.23;3.42;;;;;;;;;;5033046;28;20080;-61
2023/10/08 02:41:17;;;;;;;22.63;3.33;;;;;;;;;;5048862;28;20053;-61
2023/10/08 02:43:44;;;;;;;19.75;3.58;;;;;;;;;;5029265;28;20048;-61
2023/10/08 02:46:15;;;;;;;16.57;3.40;;;;;;;;;;5013984;28;20053;-61
2023/10/08 02:48:43;;;;;;;20.38;3.42;;;;;;;;;;5013675;28;20053;-61
2023/10/08 02:51:14;;;;;;;19.33;2.95;;;;;;;;;;5018660;28;20184;-61
2023/10/08 02:53:43;;;;;;;17.67;3.05;;;;;;;;;;5010865;28;20084;-61
2023/10/08 02:56:13;;;;;;;10.57;3.17;;;;;;;;;;5022095;28;20045;-62
2023/10/08 02:58:40;;;;;;;14.30;3.42;;;;;;;;;;5032824;28;20049;-61
2023/10/08 03:01:12;;;;;;;19.20;3.28;;;;;;;;;;5038356;28;20053;-61
2023/10/08 03:03:40;;;;;;;15.43;3.53;;;;;;;;;;5017048;28;20049;-61
2023/10/08 03:06:11;;;;;;;17.50;3.08;;;;;;;;;;5022767;28;20089;-61
2023/10/08 03:08:41;;;;;;;10.73;3.03;;;;;;;;;;5024260;28;20272;-61
2023/10/08 03:11:16;;;;;;;23.75;3.40;;;;;;;;;;5038987;28;20052;-61
2023/10/08 03:13:46;;;;;;;20.15;3.47;;;;;;;;;;5018564;28;20045;-60
2023/10/08 03:16:14;;;;;;;12.20;2.75;;;;;;;;;;5035020;28;20076;-61
2023/10/08 03:18:45;;;;;;;13.60;3.93;;;;;;;;;;5020455;28;20137;-61
2023/10/08 03:21:42;;;;;;;20.55;3.63;;;;;;;;;;5036803;28;20126;-61
2023/10/08 03:24:12;;;;;;;18.67;3.83;;;;;;;;;;5032823;28;20072;-61
2023/10/08 03:26:40;;;;;;;15.93;3.70;;;;;;;;;;5031769;28;20060;-61
2023/10/08 03:29:08;;;;;;;15.73;3.22;;;;;;;;;;5035850;28;20063;-61
2023/10/08 03:31:50;;;;;;;;;;;;;;;;;;5025818;28;22040;-61
2023/10/08 03:34:18;;;;;;;17.13;3.10;;;;;;;;;;5013341;28;19991;-61
2023/10/08 03:36:49;;;;;;;15.80;3.30;;;;;;;;;;5032342;28;20059;-61
2023/10/08 03:39:18;;;;;;;13.50;3.08;;;;;;;;;;5021679;28;20103;-61
2023/10/08 03:41:58;;;;;;;12.90;3.40;;;;;;;;;;5022384;28;20200;-61
2023/10/08 03:44:25;;;;;;;12.48;2.90;;;;;;;;;;5014298;28;20064;-62
2023/10/08 03:46:52;;;;;;;16.83;3.22;;;;;;;;;;5023454;28;20057;-61
2023/10/08 03:49:26;;;;;;;15.98;3.17;;;;;;;;;;5020599;28;20053;-60
2023/10/08 03:51:57;;;;;;;11.18;3.45;;;;;;;;;;5038270;28;20142;-61
2023/10/08 03:54:29;;;;;;;13.45;3.28;;;;;;;;;;5020981;28;20048;-60
2023/10/08 03:56:57;;;;;;;14.32;3.80;;;;;;;;;;5031914;28;20064;-62
2023/10/08 03:59:31;;;;;;;18.30;3.65;;;;;;;;;;5035104;28;20059;-61
2023/10/08 04:02:09;;;;;;;31.40;3.80;;;;;;;;;;5044392;28;20132;-61
2023/10/08 04:04:48;;;;;;;12.15;3.53;;;;;;;;;;5005405;28;20053;-61
2023/10/08 04:07:39;;;;;;;14.52;3.47;;;;;;;;;;5051734;28;20119;-61
2023/10/08 04:10:34;;;;;;;15.90;3.65;;;;;;;;;;5034643;28;20052;-60
2023/10/08 04:13:01;;;;;;;15.30;3.38;;;;;;;;;;5037381;28;20119;-60
2023/10/08 04:15:27;;;;;;;15.98;3.40;;;;;;;;;;5030871;28;20049;-61
2023/10/08 04:17:54;;;;;;;10.57;3.20;;;;;;;;;;5034481;28;20085;-61
2023/10/08 04:20:38;;;;;;;;;;;;;;;;;;5045187;28;20072;-62
2023/10/08 04:23:13;;;;;;;8.38;2.80;;;;;;;;;;5056922;28;19936;-61
2023/10/08 04:25:41;;;;;;;10.27;3.05;;;;;;;;;;5032589;28;20076;-61
2023/10/08 04:28:14;;;;;;;12.20;3.25;;;;;;;;;;5034884;28;20053;-61
2023/10/08 04:30:41;;;;;;;16.30;3.60;;;;;;;;;;5045011;28;20340;-61
2023/10/08 04:33:12;;;;;;;13.98;3.58;;;;;;;;;;5035006;28;20119;-61
2023/10/08 04:35:47;;;;;;;12.48;3.50;;;;;;;;;;5031508;28;20044;-60
2023/10/08 04:38:18;;;;;;;13.65;3.25;;;;;;;;;;5034792;28;20071;-61
2023/10/08 04:40:48;;;;;;;21.52;4.07;;;;;;;;;;5050210;28;20064;-60
2023/10/08 04:43:21;;;;;;;12.10;3.42;;;;;;;;;;5037128;28;20160;-61
2023/10/08 04:45:49;;;;;;;14.75;3.97;;;;;;;;;;5019181;28;20053;-61
2023/10/08 04:48:20;;;;;;;12.27;3.45;;;;;;;;;;5033315;28;20076;-61
2023/10/08 04:50:57;;;;;;;11.27;3.17;;;;;;;;;;5034701;28;21926;-61
2023/10/08 04:53:31;;;;;;;11.17;2.87;;;;;;;;;;5047466;28;20064;-61
2023/10/08 04:56:02;;;;;;;17.48;3.50;;;;;;;;;;5021746;28;20144;-61
2023/10/08 04:58:33;;;;;;;12.43;3.35;;;;;;;;;;5032091;28;20056;-60
2023/10/08 05:01:17;;;;;;;11.35;3.08;;;;;;;;;;5035767;28;20056;-61
2023/10/08 05:03:55;;;;;;;19.42;3.80;;;;;;;;;;5032055;28;20061;-61
2023/10/08 05:06:39;;;;;;;15.75;3.80;;;;;;;;;;5024895;28;20049;-61
2023/10/08 05:09:22;;;;;;;11.88;3.33;;;;;;;;;;5044694;28;20072;-61
2023/10/08 05:12:08;;;;;;;15.18;3.30;;;;;;;;;;5035019;28;20044;-61
2023/10/08 05:14:38;;;;;;;14.75;3.95;;;;;;;;;;5021210;28;20049;-61
2023/10/08 05:17:09;;;;;;;22.42;4.35;;;;;;;;;;5019178;28;20048;-61
2023/10/08 05:19:56;;;;;;;24.73;8.60;;;;;;;;;;5014215;28;20067;-60
2023/10/08 05:22:43;;;;;;;14.55;4.68;;;;;;;;;;5010006;28;20106;-63
2023/10/08 05:25:24;;;;;;;14.87;3.63;;;;;;;;;;5023963;28;20064;-60
2023/10/08 05:27:58;;;;;;;19.23;3.80;;;;;;;;;;5024156;28;20316;-61
2023/10/08 05:30:28;;;;;;;17.23;3.22;;;;;;;;;;5008004;28;20066;-61
2023/10/08 05:33:12;;;;;;;17.55;3.70;;;;;;;;;;5009659;28;20144;-61
2023/10/08 05:35:54;;;;;;;16.00;3.28;;;;;;;;;;5019238;28;20045;-62
2023/10/08 05:38:38;;;;;;;12.73;2.67;;;;;;;;;;5023857;28;20068;-61
2023/10/08 05:41:16;;;;;;;17.33;3.30;;;;;;;;;;5025987;28;20064;-60
2023/10/08 05:43:55;;;;;;;6.13;2.67;;;;;;;;;;5021135;28;20063;-60
2023/10/08 05:46:47;;;;;;;15.07;2.72;;;;;;;;;;5008155;28;20058;-61
2023/10/08 05:49:36;;;;;;;7.57;2.53;;;;;;;;;;5027675;28;20065;-61
2023/10/08 05:55:14;;;;;;;9.68;2.15;;;;;;;;;;5009371;28;20105;-60
2023/10/08 05:57:46;;;;;;;9.98;1.92;;;;;;;;;;5010631;28;20057;-60
2023/10/08 06:03:09;;;;;;;11.40;2.05;;;;;;;;;;5013978;28;20053;-61
2023/10/08 06:05:46;;;;;;;11.97;2.30;;;;;;;;;;5008187;28;20053;-61
2023/10/08 06:08:21;;;;;;;11.20;2.15;;;;;;;;;;5028467;28;20111;-61
2023/10/08 06:10:56;;;;;;;7.38;1.75;;;;;;;;;;5014055;28;20063;-60
2023/10/08 06:13:29;;;;;;;14.70;2.58;;;;;;;;;;5016940;28;20148;-61
2023/10/08 06:16:08;;;;;;;10.82;2.00;;;;;;;;;;4981528;28;20085;-60
2023/10/08 06:18:34;;;;;;;15.80;2.33;;;;;;;;;;5011386;28;20082;-61
2023/10/08 06:21:07;;;;;;;10.77;3.53;;;;;;;;;;5017973;28;20141;-60
2023/10/08 06:23:38;;;;;;;14.00;2.40;;;;;;;;;;5016194;28;20077;-61
2023/10/08 06:26:13;;;;;;;7.85;1.88;;;;;;;;;;5000445;28;20157;-61
2023/10/08 06:28:43;;;;;;;15.07;2.05;;;;;;;;;;5030920;28;20092;-61
2023/10/08 06:31:16;;;;;;;7.13;1.65;;;;;;;;;;5013125;28;20111;-61
2023/10/08 06:33:43;;;;;;;6.40;1.60;;;;;;;;;;5018094;28;20061;-61
2023/10/08 06:36:15;;;;;;;5.57;1.50;;;;;;;;;;5032472;28;20055;-62
2023/10/08 06:38:43;;;;;;;8.02;1.55;;;;;;;;;;5033399;28;20057;-61
2023/10/08 06:41:15;;;;;;;5.57;1.80;;;;;;;;;;5033058;28;20152;-60
2023/10/08 06:43:46;;;;;;;5.15;1.58;;;;;;;;;;5037732;28;20052;-62
2023/10/08 06:46:14;;;;;;;5.72;1.67;;;;;;;;;;5020624;28;20048;-62
2023/10/08 06:48:49;;;;;;;3.80;1.53;;;;;;;;;;5032716;28;20086;-63
2023/10/08 06:51:17;;;;;;;5.07;1.70;;;;;;;;;;5034611;28;20065;-61
2023/10/08 06:53:44;;;;;;;;;;;;;;;;;;5035348;28;20052;-62
2023/10/08 06:56:15;;;;;;;10.20;1.90;;;;;;;;;;5031642;28;19924;-61
2023/10/08 06:58:47;;;;;;;6.28;1.50;;;;;;;;;;5034125;28;20068;-62
2023/10/08 07:01:20;;;;;;;5.53;1.80;;;;;;;;;;5034733;28;20044;-61
2023/10/08 07:03:48;;;;;;;5.72;1.40;;;;;;;;;;5018008;28;20052;-61
2023/10/08 07:06:25;;;;;;;2.58;1.08;;;;;;;;;;4993945;28;20057;-61
2023/10/08 07:08:54;;;;;;;8.40;1.50;;;;;;;;;;5020376;28;20068;-61
2023/10/08 07:11:22;;;;;;;8.20;1.55;;;;;;;;;;5021124;28;20089;-60
2023/10/08 07:13:51;;;;;;;7.30;1.42;;;;;;;;;;5013607;28;20151;-61
2023/10/08 07:16:18;;;;;;;2.80;1.15;;;;;;;;;;5028961;28;20053;-60
2023/10/08 07:18:51;;;;;;;10.73;1.25;;;;;;;;;;5029948;28;20265;-62
2023/10/08 07:21:18;;;;;;;5.07;1.25;;;;;;;;;;5034904;28;20072;-62
2023/10/08 07:23:57;;;;;;;4.57;1.17;;;;;;;;;;5030204;28;20053;-64
2023/10/08 07:26:25;;;;;;;8.25;1.52;;;;;;;;;;5024564;28;20258;-61
2023/10/08 07:28:53;;;;;;;3.15;1.50;;;;;;;;;;5015111;28;20061;-61
2023/10/08 07:31:22;;;;;;;5.78;1.40;;;;;;;;;;5016413;28;20149;-62
2023/10/08 07:33:55;;;;;;;6.40;1.48;;;;;;;;;;5012779;28;20046;-62
2023/10/08 07:36:22;;;;;;;7.68;1.50;;;;;;;;;;5007880;28;20058;-62
2023/10/08 07:38:49;;;;;;;6.30;1.95;;;;;;;;;;5014178;28;20080;-62
2023/10/08 07:41:16;;;;;;;5.38;1.80;;;;;;;;;;5018612;28;20065;-62
2023/10/08 07:43:43;;;;;;;5.35;1.73;;;;;;;;;;5016452;28;20067;-61
2023/10/08 07:46:15;;;;;;;6.72;2.25;;;;;;;;;;5014207;28;20128;-61
2023/10/08 07:48:42;;;;;;;8.27;2.10;;;;;;;;;;5034332;28;20096;-61
2023/10/08 07:51:09;;;;;;;7.20;2.30;;;;;;;;;;5007884;28;20075;-60
2023/10/08 07:53:38;;;;;;;4.53;2.03;;;;;;;;;;5007918;28;20096;-63
2023/10/08 07:56:07;;;;;;;11.52;2.40;;;;;;;;;;4992596;28;20049;-63
2023/10/08 07:58:35;;;;;;;6.68;2.17;;;;;;;;;;5005717;28;20084;-60
2023/10/08 08:01:06;;;;;;;6.18;2.55;;;;;;;;;;5013417;28;20061;-61
2023/10/08 08:03:37;;;;;;;5.85;2.40;;;;;;;;;;5018249;28;20045;-62
2023/10/08 08:06:07;;;;;;;5.82;2.28;;;;;;;;;;5022460;28;20053;-63
2023/10/08 08:08:39;;;;;;;8.77;2.10;;;;;;;;;;5021542;28;20056;-62
2023/10/08 08:11:11;;;;;;;7.25;2.50;;;;;;;;;;5029036;28;20045;-61
2023/10/08 08:13:39;;;;;;;4.35;2.15;;;;;;;;;;5028203;28;20064;-60
2023/10/08 08:16:16;;;;;;;4.38;1.90;;;;;;;;;;4994075;28;20103;-60
2023/10/08 08:18:45;;;;;;;6.18;2.58;;;;;;;;;;5002316;28;20056;-59
2023/10/08 08:21:15;;;;;;;6.15;2.42;;;;;;;;;;5012711;28;20060;-60
2023/10/08 08:23:47;;;;;;;9.00;2.38;;;;;;;;;;5009247;28;20171;-60
2023/10/08 08:26:26;;;;;;;8.68;2.50;;;;;;;;;;5000830;28;20119;-61
2023/10/08 08:28:54;;;;;;;3.92;1.75;;;;;;;;;;5014787;28;20140;-60
2023/10/08 08:31:21;;;;;;;4.72;2.22;;;;;;;;;;5015389;28;20072;-60
2023/10/08 08:33:59;;;;;;;5.88;2.30;;;;;;;;;;5027700;28;20077;-60
2023/10/08 08:36:28;;;;;;;4.93;2.05;;;;;;;;;;5019707;28;20372;-60
2023/10/08 08:38:55;;;;;;;6.53;2.20;;;;;;;;;;5030008;28;20060;-60
2023/10/08 08:41:23;;;;;;;4.80;1.80;;;;;;;;;;5014215;28;20095;-60
2023/10/08 08:43:57;;;;;;;5.95;2.33;;;;;;;;;;5012421;28;20160;-61
2023/10/08 08:46:35;;;;;;;5.40;1.92;;;;;;;;;;5027636;28;20171;-63
2023/10/08 08:49:05;;;;;;;5.57;2.35;;;;;;;;;;5033348;28;20086;-60
2023/10/08 08:51:33;;;;;;;5.72;2.03;;;;;;;;;;5034263;28;20119;-60
2023/10/08 08:54:00;;;;;;;5.43;2.55;;;;;;;;;;5026590;28;20396;-60
2023/10/08 08:56:32;;;;;;;8.13;2.28;;;;;;;;;;5023098;28;20053;-61
2023/10/08 08:59:00;;;;;;;6.82;2.65;;;;;;;;;;5033684;28;20057;-60
2023/10/08 09:01:27;;;;;;;5.65;2.45;;;;;;;;;;5029186;28;20107;-60
2023/10/08 09:04:00;;;;;;;5.03;2.33;;;;;;;;;;5028007;28;20504;-60
2023/10/08 09:06:29;;;;;;;4.68;2.40;;;;;;;;;;5021990;28;20053;-61
2023/10/08 09:09:13;;;;;;;7.80;2.33;;;;;;;;;;5016591;28;20114;-60
2023/10/08 09:11:42;;;;;;;7.18;2.38;;;;;;;;;;5032433;28;20061;-60
2023/10/08 09:14:11;;;;;;;6.20;2.53;;;;;;;;;;5025291;28;20056;-61
2023/10/08 09:16:38;;;;;;;7.22;2.40;;;;;;;;;;5024658;28;20051;-60
2023/10/08 09:19:11;;;;;;;4.60;2.17;;;;;;;;;;5033486;28;20073;-60
2023/10/08 09:21:40;;;;;;;6.28;2.80;;;;;;;;;;5033891;28;20067;-61
2023/10/08 09:24:11;;;;;;;4.07;2.10;;;;;;;;;;5025630;28;20056;-62
2023/10/08 09:26:39;;;;;;;6.25;2.47;;;;;;;;;;5023732;28;20064;-62
2023/10/08 09:29:07;;;;;;;5.45;2.42;;;;;;;;;;5032953;28;20065;-62
2023/10/08 09:31:36;;;;;;;5.68;2.33;;;;;;;;;;5023738;28;20057;-62
2023/10/08 09:34:04;;;;;;;7.72;2.42;;;;;;;;;;5035025;28;20103;-63
2023/10/08 09:36:34;;;;;;;6.10;2.40;;;;;;;;;;5005578;28;20056;-66
2023/10/08 09:39:06;;;;;;;6.05;2.10;;;;;;;;;;5033116;28;20059;-62
2023/10/08 09:41:36;;;;;;;5.75;2.20;;;;;;;;;;5030382;28;20053;-61
2023/10/08 09:44:04;;;;;;;8.45;2.58;;;;;;;;;;5027163;28;20081;-63
2023/10/08 09:46:34;;;;;;;10.65;3.85;;;;;;;;;;5026953;28;20148;-61
2023/10/08 09:49:06;;;;;;;4.82;1.92;;;;;;;;;;5027134;28;20049;-61
2023/10/08 09:51:38;;;;;;;10.57;2.60;;;;;;;;;;5011224;28;20168;-62
2023/10/08 09:54:13;;;;;;;5.40;2.25;;;;;;;;;;5014266;28;20053;-62
2023/10/08 09:56:43;;;;;;;7.30;2.17;;;;;;;;;;5000486;28;20068;-63
2023/10/08 09:59:10;;;;;;;10.35;2.78;;;;;;;;;;5019182;28;20085;-62
2023/10/08 10:01:38;;;;;;;11.85;6.28;;;;;;;;;;5020002;28;20052;-62
2023/10/08 10:04:07;;;;;;;6.07;2.35;;;;;;;;;;5016170;28;20068;-62
2023/10/08 10:06:36;;;;;;;8.40;2.38;;;;;;;;;;5026102;28;20139;-62
2023/10/08 10:09:06;;;;;;;8.45;2.78;;;;;;;;;;5023982;28;20057;-62
2023/10/08 10:11:34;;;;;;;5.47;1.88;;;;;;;;;;5054420;28;20143;-64
2023/10/08 10:14:06;;;;;;;6.40;1.88;;;;;;;;;;5054155;28;20132;-62
2023/10/08 10:16:33;;;;;;;6.05;1.77;;;;;;;;;;5012433;28;20060;-61
2023/10/08 10:19:02;;;;;;;4.28;1.58;;;;;;;;;;5020381;28;20061;-62
2023/10/08 10:21:32;;;;;;;5.47;1.50;;;;;;;;;;4987369;28;20049;-62
2023/10/08 10:23:59;;;;;;;6.47;1.55;;;;;;;;;;5018275;28;20052;-62
2023/10/08 10:26:28;;;;;;;5.50;1.85;;;;;;;;;;5019303;28;20061;-62
2023/10/08 10:29:26;;;;;;;4.38;1.60;;;;;;;;;;5013849;28;20063;-62
2023/10/08 10:31:56;;;;;;;5.22;1.95;;;;;;;;;;5022769;28;20057;-63
2023/10/08 10:34:27;;;;;;;4.65;1.50;;;;;;;;;;5035847;28;20106;-61
2023/10/08 10:36:58;;;;;;;8.77;1.63;;;;;;;;;;5016606;28;20042;-63
2023/10/08 10:39:30;;;;;;;3.53;1.25;;;;;;;;;;5019979;28;20057;-62
2023/10/08 10:42:01;;;;;;;2.80;1.38;;;;;;;;;;4992197;28;20072;-62
2023/10/08 10:44:30;;;;;;;3.40;1.10;;;;;;;;;;5029950;28;20061;-62
2023/10/08 10:49:52;;;;;;;4.68;1.30;;;;;;;;;;4993311;28;20084;-63
2023/10/08 10:52:31;;;;;;;4.18;1.25;;;;;;;;;;5033951;28;20061;-60
2023/10/08 10:55:17;;;;;;;7.22;1.55;;;;;;;;;;4993671;28;20057;-63
2023/10/08 10:57:55;;;;;;;4.10;1.30;;;;;;;;;;5017491;28;20050;-61
2023/10/08 11:03:16;;;;;;;3.85;1.30;;;;;;;;;;4987127;28;20297;-61
2023/10/08 11:05:48;;;;;;;6.68;1.63;;;;;;;;;;5000549;28;20088;-62
2023/10/08 11:08:18;;;;;;;4.22;1.30;;;;;;;;;;5007294;28;20144;-61
2023/10/08 11:10:50;;;;;;;8.32;1.38;;;;;;;;;;5019295;28;20061;-61
2023/10/08 11:13:19;;;;;;;4.93;1.25;;;;;;;;;;5017823;28;20116;-61
2023/10/08 11:15:52;;;;;;;6.65;1.35;;;;;;;;;;5041947;28;20046;-61
2023/10/08 11:18:20;;;;;;;6.05;1.38;;;;;;;;;;5038804;28;20132;-61
2023/10/08 11:20:53;;;;;;;5.18;1.70;;;;;;;;;;5041460;28;20134;-63
2023/10/08 11:23:36;;;;;;;3.53;1.30;;;;;;;;;;5033371;28;20080;-61
2023/10/08 11:26:05;;;;;;;6.45;1.90;;;;;;;;;;5039503;28;20115;-62
2023/10/08 11:28:34;;;;;;;34.22;16.85;;;;;;;;;;5040063;28;20061;-61
2023/10/08 11:31:10;;;;;;;9.50;3.50;;;;;;;;;;5015914;28;20045;-63
2023/10/08 11:33:40;;;;;;;6.22;1.70;;;;;;;;;;5015169;28;20060;-60
2023/10/08 11:36:18;;;;;;;4.55;1.25;;;;;;;;;;5019475;28;20061;-62
2023/10/08 11:38:50;;;;;;;3.92;1.10;;;;;;;;;;5019261;28;20049;-60
2023/10/08 11:41:27;;;;;;;6.07;1.38;;;;;;;;;;5013673;28;20049;-61
2023/10/08 11:43:57;;;;;;;4.60;1.30;;;;;;;;;;5048242;28;20053;-60
2023/10/08 11:46:27;;;;;;;3.47;1.33;;;;;;;;;;5019682;28;20080;-61
2023/10/08 11:49:03;;;;;;;3.15;0.93;;;;;;;;;;5015800;28;20061;-61
2023/10/08 11:51:30;;;;;;;4.93;1.17;;;;;;;;;;5009472;28;20119;-61
2023/10/08 11:53:57;;;;;;;6.22;1.50;;;;;;;;;;5017049;28;20050;-61
2023/10/08 11:56:24;;;;;;;9.02;2.20;;;;;;;;;;5001016;28;20300;-61
2023/10/08 11:58:51;;;;;;;10.63;4.32;;;;;;;;;;4998085;28;20130;-61
2023/10/08 12:01:18;;;;;;;5.80;2.15;;;;;;;;;;4996182;28;20061;-62
2023/10/08 12:03:49;;;;;;;4.90;1.77;;;;;;;;;;5021514;28;20045;-60
2023/10/08 12:06:18;;;;;;;4.80;1.50;;;;;;;;;;5041434;28;20076;-61
2023/10/08 12:08:47;;;;;;;;;;;;;;;;;;5037312;28;20068;-61
2023/10/08 12:11:15;;;;;;;3.60;1.10;;;;;;;;;;5030403;28;19925;-61
2023/10/08 12:13:45;;;;;;;4.70;1.40;;;;;;;;;;5038838;28;20049;-61
2023/10/08 12:16:18;;;;;;;6.22;1.35;;;;;;;;;;5039068;28;20053;-61
2023/10/08 12:18:48;;;;;;;2.90;1.33;;;;;;;;;;5038561;28;20049;-61
2023/10/08 12:21:17;;;;;;;4.97;1.30;;;;;;;;;;5030569;28;20195;-63
2023/10/08 12:23:46;;;;;;;8.77;2.08;;;;;;;;;;5009127;28;20060;-62
2023/10/08 12:26:18;;;;;;;5.10;1.50;;;;;;;;;;5019701;28;20077;-62
2023/10/08 12:28:47;;;;;;;3.05;1.23;;;;;;;;;;5017356;28;20076;-61
2023/10/08 12:31:22;;;;;;;4.80;1.10;;;;;;;;;;5012363;28;20064;-61
2023/10/08 12:33:55;;;;;;;3.72;1.02;;;;;;;;;;5017009;28;20056;-61
2023/10/08 12:36:26;;;;;;;2.88;1.00;;;;;;;;;;5039054;28;20184;-61
2023/10/08 12:38:58;;;;;;;2.72;0.85;;;;;;;;;;5032230;28;20154;-62
2023/10/08 12:41:26;;;;;;;1.65;0.93;;;;;;;;;;5040650;28;20136;-61
2023/10/08 12:43:58;;;;;;;1.90;0.82;;;;;;;;;;4976185;28;20130;-61
2023/10/08 12:46:30;;;;;;;6.85;1.10;;;;;;;;;;5036235;28;20081;-62
2023/10/08 12:49:01;;;;;;;2.80;0.90;;;;;;;;;;5051705;28;20053;-61
2023/10/08 12:51:33;;;;;;;4.85;1.30;;;;;;;;;;5039866;28;20060;-61
2023/10/08 12:54:06;;;;;;;4.80;1.33;;;;;;;;;;5024273;28;20064;-61
2023/10/08 12:56:35;;;;;;;5.63;2.38;;;;;;;;;;5059865;28;20060;-62
2023/10/08 12:59:07;;;;;;;8.63;4.13;;;;;;;;;;5049622;28;20056;-61
2023/10/08 13:01:35;;;;;;;7.15;3.53;;;;;;;;;;5056099;28;20048;-61
2023/10/08 13:04:12;;;;;;;;;;;;;;;;;;5022580;28;20057;-61
2023/10/08 13:06:38;;;;;;;5.13;1.25;;;;;;;;;;5051553;28;19932;-61
2023/10/08 13:09:12;;;;;;;3.00;1.25;;;;;;;;;;5029613;28;20124;-62
2023/10/08 13:11:42;;;;;;;3.38;1.40;;;;;;;;;;5029169;28;20061;-62
2023/10/08 13:14:11;;;;;;;5.35;1.52;;;;;;;;;;5014914;28;20057;-61
2023/10/08 13:16:44;;;;;;;2.88;1.35;;;;;;;;;;5036468;28;20060;-61
2023/10/08 13:19:19;;;;;;;4.18;1.55;;;;;;;;;;5031156;28;20130;-61
2023/10/08 13:21:52;;;;;;;6.32;1.95;;;;;;;;;;5016582;28;20053;-62
2023/10/08 13:24:19;;;;;;;5.72;1.73;;;;;;;;;;5008337;28;20061;-61
2023/10/08 13:26:47;;;;;;;3.40;1.70;;;;;;;;;;5021364;28;20135;-61
2023/10/08 13:29:15;;;;;;;3.22;1.60;;;;;;;;;;5009494;28;20077;-61
2023/10/08 13:31:41;;;;;;;6.68;2.00;;;;;;;;;;5009685;28;20052;-62
2023/10/08 13:34:11;;;;;;;4.05;1.60;;;;;;;;;;5021308;28;20138;-61
2023/10/08 13:36:43;;;;;;;4.82;1.88;;;;;;;;;;5014910;28;20041;-61
2023/10/08 13:39:18;;;;;;;5.03;1.73;;;;;;;;;;5011108;28;20049;-61
2023/10/08 13:41:47;;;;;;;19.80;9.15;;;;;;;;;;5018798;28;20064;-62
2023/10/08 13:44:16;;;;;;;6.22;2.72;;;;;;;;;;5000879;28;20054;-61
2023/10/08 13:46:48;;;;;;;;;;;;;;;;;;5018136;28;20099;-62
2023/10/08 13:49:16;;;;;;;6.90;1.55;;;;;;;;;;5011448;28;19929;-60
2023/10/08 13:51:56;;;;;;;4.35;1.95;;;;;;;;;;5009797;28;20256;-61
2023/10/08 13:54:26;;;;;;;4.40;1.88;;;;;;;;;;4996320;28;20092;-60
2023/10/08 13:56:55;;;;;;;6.70;1.73;;;;;;;;;;4994078;28;20164;-62
2023/10/08 13:59:24;;;;;;;3.80;1.77;;;;;;;;;;5009188;28;20072;-60
2023/10/08 14:01:54;;;;;;;4.30;1.58;;;;;;;;;;5017702;28;20049;-60
2023/10/08 14:04:29;;;;;;;12.13;1.75;;;;;;;;;;4939665;28;20107;-60
2023/10/08 14:06:58;;;;;;;4.60;1.60;;;;;;;;;;5011561;28;20169;-61
2023/10/08 14:09:36;;;;;;;8.57;4.13;;;;;;;;;;5017399;28;20050;-60
2023/10/08 14:12:03;;;;;;;6.90;2.60;;;;;;;;;;5012372;28;20053;-60
2023/10/08 14:14:30;;;;;;;3.72;1.70;;;;;;;;;;4988932;28;20085;-60
2023/10/08 14:17:05;;;;;;;3.63;1.30;;;;;;;;;;4991775;28;20115;-61
2023/10/08 14:19:39;;;;;;;4.72;1.70;;;;;;;;;;5030492;28;20057;-61
2023/10/08 14:22:08;;;;;;;5.57;1.75;;;;;;;;;;5014394;28;20093;-60
2023/10/08 14:24:38;;;;;;;4.45;1.33;;;;;;;;;;5021649;28;20151;-60
2023/10/08 14:27:15;;;;;;;4.72;1.70;;;;;;;;;;5033240;28;20060;-60
2023/10/08 14:29:44;;;;;;;6.93;1.88;;;;;;;;;;5040030;28;20068;-60
2023/10/08 14:32:11;;;;;;;4.85;1.63;;;;;;;;;;5019505;28;20061;-61
2023/10/08 14:43:02;;;;;;;5.40;1.60;;;;;;;;;;4962155;28;20065;-60
2023/10/08 14:45:33;;;;;;;5.07;1.80;;;;;;;;;;5011266;28;20130;-60
2023/10/08 14:48:00;;;;;;;5.65;1.70;;;;;;;;;;5037700;28;20060;-61
2023/10/08 14:50:31;;;;;;;5.53;1.67;;;;;;;;;;5018841;28;20173;-60
2023/10/08 14:53:01;;;;;;;5.90;2.00;;;;;;;;;;5035877;28;20061;-62
2023/10/08 14:55:30;;;;;;;2.80;1.50;;;;;;;;;;4998738;28;20113;-61
2023/10/08 14:57:57;;;;;;;4.05;1.80;;;;;;;;;;5003752;28;20054;-60
2023/10/08 15:00:26;;;;;;;5.20;1.70;;;;;;;;;;4997894;28;20085;-62
2023/10/08 15:02:54;;;;;;;;;;;;;;;;;;4998144;28;20060;-61
2023/10/08 15:05:22;;;;;;;4.40;2.10;;;;;;;;;;5023202;28;19935;-60
2023/10/08 15:07:50;;;;;;;6.63;2.20;;;;;;;;;;5022960;28;20057;-60
2023/10/08 15:10:21;;;;;;;3.72;1.73;;;;;;;;;;5004853;28;20133;-60
2023/10/08 15:12:51;;;;;;;3.80;1.50;;;;;;;;;;4998452;28;20079;-61
2023/10/08 15:15:21;;;;;;;4.30;1.70;;;;;;;;;;5025275;28;20159;-60
2023/10/08 15:17:51;;;;;;;7.47;1.60;;;;;;;;;;5041356;28;20056;-61
2023/10/08 15:20:19;;;;;;;4.15;1.90;;;;;;;;;;5054208;28;20057;-60
2023/10/08 15:22:47;;;;;;;5.40;1.88;;;;;;;;;;5044342;28;20143;-60